createdAt,value
2023-02-19T00:00:23.080Z,4.16
2023-02-19T00:02:52.826Z,4.33
2023-02-19T00:05:21.788Z,4.29
2023-02-19T00:07:51.382Z,4.10
2023-02-19T00:10:20.541Z,3.99
2023-02-19T00:12:49.952Z,3.89
2023-02-19T00:15:20.754Z,3.86
2023-02-19T00:17:49.691Z,3.84
2023-02-19T00:20:19.051Z,3.76
2023-02-19T00:22:47.991Z,3.83
2023-02-19T00:25:17.119Z,3.91
2023-02-19T00:27:46.616Z,3.91
2023-02-19T00:30:15.705Z,3.95
2023-02-19T00:32:51.807Z,3.91
2023-02-19T00:35:20.875Z,4.07
2023-02-19T00:37:50.030Z,3.99
2023-02-19T00:40:19.079Z,3.89
2023-02-19T00:42:48.067Z,3.72
2023-02-19T00:45:18.953Z,3.68
2023-02-19T00:47:49.953Z,3.61
2023-02-19T00:50:19.203Z,3.57
2023-02-19T00:52:48.138Z,3.77
2023-02-19T00:55:17.186Z,3.89
2023-02-19T00:57:46.158Z,4.01
2023-02-19T01:00:15.823Z,3.92
2023-02-19T01:02:44.747Z,3.83
2023-02-19T01:05:15.062Z,3.78
2023-02-19T01:07:44.114Z,3.73
2023-02-19T01:10:13.137Z,3.59
2023-02-19T01:12:42.044Z,3.53
2023-02-19T01:15:11.030Z,3.67
2023-02-19T01:17:40.159Z,3.48
2023-02-19T01:20:10.768Z,3.47
2023-02-19T01:22:41.122Z,3.40
2023-02-19T01:25:10.237Z,3.32
2023-02-19T01:27:39.234Z,3.25
2023-02-19T01:30:09.738Z,3.40
2023-02-19T01:32:38.784Z,3.33
2023-02-19T01:35:08.255Z,3.12
2023-02-19T01:37:37.322Z,3.06
2023-02-19T01:40:08.991Z,3.07
2023-02-19T01:42:38.069Z,2.83
2023-02-19T01:45:28.917Z,2.79
2023-02-19T01:48:10.672Z,2.82
2023-02-19T01:50:45.558Z,2.72
2023-02-19T01:53:18.158Z,2.82
2023-02-19T01:55:51.546Z,2.79
2023-02-19T01:58:22.508Z,2.77
2023-02-19T02:00:51.848Z,2.72
2023-02-19T02:03:22.030Z,2.94
2023-02-19T02:05:58.747Z,3.05
2023-02-19T02:08:45.490Z,3.12
2023-02-19T02:11:16.127Z,3.09
2023-02-19T02:13:45.326Z,2.92
2023-02-19T02:16:24.919Z,2.92
2023-02-19T02:19:07.037Z,2.80
2023-02-19T02:22:03.754Z,2.73
2023-02-19T02:25:21.817Z,2.57
2023-02-19T02:28:04.543Z,2.81
2023-02-19T02:30:43.288Z,2.65
2023-02-19T02:33:32.938Z,2.66
2023-02-19T02:36:08.886Z,2.61
2023-02-19T02:38:44.254Z,2.58
2023-02-19T02:41:15.629Z,2.71
2023-02-19T02:43:44.663Z,2.51
2023-02-19T02:46:21.086Z,2.38
2023-02-19T02:48:57.989Z,2.36
2023-02-19T02:51:30.888Z,2.33
2023-02-19T02:54:25.595Z,2.35
2023-02-19T02:56:57.618Z,2.46
2023-02-19T02:59:33.347Z,2.20
2023-02-19T03:02:14.378Z,2.13
2023-02-19T03:05:10.337Z,2.13
2023-02-19T03:07:46.589Z,2.12
2023-02-19T03:10:21.634Z,2.05
2023-02-19T03:13:11.742Z,2.03
2023-02-19T03:16:15.469Z,2.05
2023-02-19T03:19:09.656Z,2.03
2023-02-19T03:21:41.359Z,2.33
2023-02-19T03:24:30.899Z,2.15
2023-02-19T03:27:03.560Z,1.99
2023-02-19T03:29:42.781Z,2.12
2023-02-19T03:32:18.385Z,2.23
2023-02-19T03:34:55.599Z,2.20
2023-02-19T03:37:27.980Z,2.15
2023-02-19T03:40:00.734Z,2.18
2023-02-19T03:42:42.425Z,2.18
2023-02-19T03:45:33.241Z,2.15
2023-02-19T03:48:22.134Z,2.20
2023-02-19T03:51:06.654Z,2.17
2023-02-19T03:53:48.699Z,2.27
2023-02-19T03:56:23.980Z,2.20
2023-02-19T03:59:00.131Z,2.10
2023-02-19T04:01:36.451Z,1.92
2023-02-19T04:04:13.724Z,1.94
2023-02-19T04:06:46.435Z,2.13
2023-02-19T04:09:17.411Z,2.11
2023-02-19T04:11:52.790Z,2.30
2023-02-19T04:14:25.943Z,2.11
2023-02-19T04:17:00.646Z,1.86
2023-02-19T04:19:34.114Z,1.69
2023-02-19T04:22:07.422Z,1.67
2023-02-19T04:24:41.586Z,1.67
2023-02-19T04:27:12.067Z,1.78
2023-02-19T04:34:06.881Z,1.83
2023-02-19T04:36:35.929Z,1.89
2023-02-19T04:39:08.158Z,1.98
2023-02-19T04:41:37.257Z,2.10
2023-02-19T04:44:06.831Z,2.13
2023-02-19T04:46:35.990Z,2.04
2023-02-19T04:49:05.138Z,2.08
2023-02-19T04:51:34.296Z,2.19
2023-02-19T04:54:03.446Z,2.19
2023-02-19T04:56:33.983Z,2.13
2023-02-19T04:59:03.144Z,2.35
2023-02-19T05:01:32.376Z,2.29
2023-02-19T05:04:01.591Z,2.18
2023-02-19T05:06:30.718Z,1.98
2023-02-19T05:08:59.908Z,1.96
2023-02-19T05:11:28.974Z,2.27
2023-02-19T05:13:59.422Z,2.13
2023-02-19T05:16:28.542Z,2.21
2023-02-19T05:18:57.692Z,2.14
2023-02-19T05:21:26.949Z,2.25
2023-02-19T05:23:56.150Z,2.37
2023-02-19T05:26:26.793Z,2.42
2023-02-19T05:28:56.406Z,2.23
2023-02-19T05:31:27.328Z,2.28
2023-02-19T05:33:57.551Z,2.20
2023-02-19T05:36:26.953Z,2.20
2023-02-19T05:38:57.751Z,2.42
2023-02-19T05:41:29.004Z,2.36
2023-02-19T05:43:59.436Z,2.45
2023-02-19T05:46:31.428Z,2.47
2023-02-19T05:49:00.818Z,2.51
2023-02-19T05:51:29.805Z,2.49
2023-02-19T05:53:59.109Z,2.52
2023-02-19T05:56:36.878Z,2.50
2023-02-19T05:59:09.682Z,2.48
2023-02-19T06:01:40.217Z,2.54
2023-02-19T06:04:10.512Z,2.49
2023-02-19T06:06:40.567Z,2.54
2023-02-19T06:09:10.607Z,2.58
2023-02-19T06:11:40.802Z,2.69
2023-02-19T06:14:09.917Z,2.70
2023-02-19T06:16:40.437Z,2.66
2023-02-19T06:19:09.595Z,2.64
2023-02-19T06:21:38.719Z,2.54
2023-02-19T06:24:09.121Z,2.55
2023-02-19T06:26:39.437Z,2.51
2023-02-19T06:29:09.524Z,2.62
2023-02-19T06:31:40.156Z,2.71
2023-02-19T06:34:09.345Z,2.77
2023-02-19T06:36:38.540Z,2.81
2023-02-19T06:39:08.218Z,2.86
2023-02-19T06:41:37.365Z,2.86
2023-02-19T06:44:06.844Z,2.79
2023-02-19T06:46:36.021Z,2.81
2023-02-19T06:49:07.223Z,2.84
2023-02-19T06:51:36.369Z,2.87
2023-02-19T06:54:05.728Z,2.99
2023-02-19T06:56:37.633Z,3.08
2023-02-19T06:59:09.640Z,3.40
2023-02-19T07:01:39.920Z,3.35
2023-02-19T07:04:10.826Z,3.28
2023-02-19T07:06:40.376Z,3.33
2023-02-19T07:09:12.486Z,3.37
2023-02-19T07:11:41.826Z,3.40
2023-02-19T07:14:17.620Z,3.34
2023-02-19T07:16:47.450Z,3.61
2023-02-19T07:19:18.045Z,3.72
2023-02-19T07:21:47.222Z,3.76
2023-02-19T07:24:16.536Z,3.98
2023-02-19T07:26:45.658Z,3.91
2023-02-19T07:29:14.756Z,3.87
2023-02-19T07:31:44.652Z,3.92
2023-02-19T07:34:13.858Z,3.92
2023-02-19T07:36:44.428Z,4.04
2023-02-19T07:39:15.712Z,4.15
2023-02-19T07:41:44.922Z,4.23
2023-02-19T07:44:27.683Z,4.08
2023-02-19T07:46:56.812Z,4.18
2023-02-19T07:49:25.932Z,4.31
2023-02-19T07:51:56.714Z,4.35
2023-02-19T07:54:25.850Z,4.44
2023-02-19T07:56:54.918Z,4.55
2023-02-19T07:59:24.362Z,4.65
2023-02-19T08:02:10.894Z,4.87
2023-02-19T08:04:40.478Z,5.14
2023-02-19T08:07:10.894Z,5.23
2023-02-19T08:09:40.274Z,5.39
2023-02-19T08:12:30.248Z,5.65
2023-02-19T08:14:59.297Z,5.85
2023-02-19T08:17:30.211Z,5.93
2023-02-19T08:19:59.371Z,6.12
2023-02-19T08:22:29.818Z,6.40
2023-02-19T08:24:58.971Z,6.58
2023-02-19T08:27:28.086Z,6.59
2023-02-19T08:29:57.167Z,6.59
2023-02-19T08:32:26.378Z,6.67
2023-02-19T08:34:55.458Z,6.82
2023-02-19T08:37:24.669Z,6.88
2023-02-19T08:44:21.567Z,6.74
2023-02-19T08:46:50.527Z,6.63
2023-02-19T08:49:20.634Z,6.50
2023-02-19T08:51:49.652Z,6.44
2023-02-19T08:54:18.646Z,6.36
2023-02-19T08:56:47.638Z,6.35
2023-02-19T08:59:17.136Z,6.15
2023-02-19T09:01:47.575Z,6.08
2023-02-19T09:04:16.739Z,5.90
2023-02-19T09:06:45.738Z,6.04
2023-02-19T09:09:14.790Z,6.15
2023-02-19T09:11:43.909Z,6.34
2023-02-19T09:14:13.106Z,6.62
2023-02-19T09:16:42.070Z,6.62
2023-02-19T09:19:12.483Z,6.62
2023-02-19T09:21:41.465Z,6.96
2023-02-19T09:24:11.032Z,7.11
2023-02-19T09:26:40.041Z,7.51
2023-02-19T09:29:08.963Z,7.88
2023-02-19T09:31:38.054Z,8.20
2023-02-19T09:34:07.341Z,8.46
2023-02-19T09:36:37.811Z,8.74
2023-02-19T09:39:07.995Z,9.00
2023-02-19T09:41:41.336Z,9.16
2023-02-19T09:44:14.432Z,9.49
2023-02-19T09:46:46.957Z,9.51
2023-02-19T09:49:19.807Z,10.09
2023-02-19T09:51:56.332Z,10.58
2023-02-19T09:54:28.106Z,10.93
2023-02-19T09:57:01.052Z,11.30
2023-02-19T09:59:34.774Z,11.61
2023-02-19T10:02:12.865Z,11.73
2023-02-19T10:04:45.147Z,11.99
2023-02-19T10:07:17.627Z,12.02
2023-02-19T10:09:49.762Z,12.22
2023-02-19T10:12:26.210Z,12.27
2023-02-19T10:15:02.802Z,12.50
2023-02-19T10:17:37.000Z,12.55
2023-02-19T10:20:07.481Z,12.40
2023-02-19T10:22:39.405Z,12.39
2023-02-19T10:25:14.251Z,12.36
2023-02-19T10:27:45.082Z,12.64
2023-02-19T10:30:24.557Z,12.63
2023-02-19T10:33:04.968Z,12.75
2023-02-19T10:35:39.420Z,13.06
2023-02-19T10:38:17.844Z,13.33
2023-02-19T10:40:48.438Z,13.52
2023-02-19T10:43:33.024Z,13.67
2023-02-19T10:46:07.981Z,13.92
2023-02-19T10:48:42.107Z,14.25
2023-02-19T10:51:21.764Z,14.40
2023-02-19T10:54:04.811Z,14.53
2023-02-19T10:56:34.100Z,14.59
2023-02-19T10:59:24.588Z,14.74
2023-02-19T11:01:59.644Z,14.85
2023-02-19T11:04:34.258Z,14.90
2023-02-19T11:07:11.747Z,15.02
2023-02-19T11:09:46.361Z,15.29
2023-02-19T11:12:24.874Z,15.33
2023-02-19T11:14:54.582Z,15.48
2023-02-19T11:17:26.680Z,15.57
2023-02-19T11:19:58.303Z,15.62
2023-02-19T11:22:34.615Z,15.79
2023-02-19T11:25:08.843Z,15.66
2023-02-19T11:27:54.436Z,15.75
2023-02-19T11:30:45.419Z,15.87
2023-02-19T11:33:29.114Z,15.98
2023-02-19T11:36:31.732Z,16.00
2023-02-19T11:39:25.062Z,16.02
2023-02-19T11:42:33.201Z,16.24
2023-02-19T11:45:31.298Z,16.60
2023-02-19T11:48:50.294Z,16.95
2023-02-19T11:51:52.187Z,17.49
2023-02-19T11:54:49.253Z,17.80
2023-02-19T11:57:37.144Z,18.19
2023-02-19T12:00:24.846Z,18.91
2023-02-19T12:03:18.517Z,19.61
2023-02-19T12:06:09.567Z,19.99
2023-02-19T12:09:14.089Z,20.73
2023-02-19T12:12:09.125Z,20.32
2023-02-19T12:15:17.092Z,20.12
2023-02-19T12:18:14.413Z,19.66
2023-02-19T12:20:51.464Z,19.26
2023-02-19T12:23:49.033Z,18.65
2023-02-19T12:26:25.157Z,18.65
2023-02-19T12:29:16.930Z,19.09
2023-02-19T12:32:15.200Z,18.14
2023-02-19T12:35:19.027Z,17.67
2023-02-19T12:37:58.199Z,17.95
2023-02-19T12:40:39.869Z,18.10
2023-02-19T12:43:25.454Z,17.73
2023-02-19T12:46:00.808Z,17.75
2023-02-19T12:48:40.485Z,17.22
2023-02-19T12:51:18.448Z,16.71
2023-02-19T12:53:54.154Z,16.59
2023-02-19T12:56:30.526Z,16.40
2023-02-19T12:59:05.231Z,16.04
2023-02-19T13:01:47.421Z,16.77
2023-02-19T13:04:34.225Z,17.55
2023-02-19T13:07:13.344Z,18.39
2023-02-19T13:09:50.130Z,19.18
2023-02-19T13:12:26.109Z,19.02
2023-02-19T13:14:59.952Z,18.06
2023-02-19T13:17:46.653Z,18.26
2023-02-19T13:20:27.494Z,17.68
2023-02-19T13:23:24.050Z,17.00
2023-02-19T13:26:30.538Z,16.71
2023-02-19T13:29:15.478Z,16.44
2023-02-19T13:32:23.145Z,16.37
2023-02-19T13:35:11.624Z,16.21
2023-02-19T13:37:43.004Z,16.10
2023-02-19T13:40:26.569Z,16.04
2023-02-19T13:42:59.920Z,16.04
2023-02-19T13:45:36.146Z,16.38
2023-02-19T13:48:26.394Z,16.51
2023-02-19T13:51:46.877Z,16.44
2023-02-19T13:54:27.649Z,15.77
2023-02-19T13:57:30.517Z,15.39
2023-02-19T14:00:00.417Z,15.03
2023-02-19T14:02:35.175Z,15.49
2023-02-19T14:05:08.574Z,16.01
2023-02-19T14:07:55.427Z,16.78
2023-02-19T14:11:03.502Z,15.86
2023-02-19T14:14:01.755Z,15.73
2023-02-19T14:17:04.926Z,15.01
2023-02-19T14:20:02.668Z,16.10
2023-02-19T14:23:12.376Z,15.93
2023-02-19T14:25:53.270Z,16.35
2023-02-19T14:28:36.660Z,16.53
2023-02-19T14:31:23.504Z,16.45
2023-02-19T14:33:56.098Z,18.27
2023-02-19T14:36:37.492Z,20.05
2023-02-19T14:39:13.693Z,19.35
2023-02-19T14:41:48.072Z,19.25
2023-02-19T14:44:23.478Z,18.38
2023-02-19T14:47:01.013Z,18.63
2023-02-19T14:49:42.644Z,18.37
2023-02-19T14:52:21.293Z,19.41
2023-02-19T14:54:57.322Z,19.30
2023-02-19T14:57:31.147Z,20.80
2023-02-19T15:00:06.814Z,19.39
2023-02-19T15:02:44.625Z,18.98
2023-02-19T15:05:18.097Z,20.45
2023-02-19T15:07:48.249Z,19.53
2023-02-19T15:10:19.104Z,19.07
2023-02-19T15:12:52.935Z,21.15
2023-02-19T15:15:29.296Z,19.15
2023-02-19T15:18:00.618Z,18.00
2023-02-19T15:20:32.681Z,16.57
2023-02-19T15:23:05.820Z,15.61
2023-02-19T15:25:39.527Z,15.20
2023-02-19T15:28:27.121Z,15.21
2023-02-19T15:31:12.323Z,14.99
2023-02-19T15:33:49.305Z,15.16
2023-02-19T15:36:27.460Z,15.05
2023-02-19T15:38:59.657Z,15.01
2023-02-19T15:41:34.774Z,14.82
2023-02-19T15:44:22.405Z,14.64
2023-02-19T15:46:53.825Z,14.68
2023-02-19T15:49:31.193Z,14.34
2023-02-19T15:52:07.818Z,14.40
2023-02-19T15:54:49.278Z,14.29
2023-02-19T15:57:25.628Z,14.23
2023-02-19T16:00:00.747Z,14.21
2023-02-19T16:02:31.596Z,13.94
2023-02-19T16:05:02.379Z,13.83
2023-02-19T16:07:33.112Z,13.62
2023-02-19T16:10:21.117Z,13.26
2023-02-19T16:12:58.861Z,12.90
2023-02-19T16:15:29.593Z,12.85
2023-02-19T16:18:01.443Z,12.42
2023-02-19T16:20:32.655Z,12.47
2023-02-19T16:23:04.984Z,12.38
2023-02-19T16:25:41.807Z,12.21
2023-02-19T16:28:14.285Z,12.25
2023-02-19T16:30:44.165Z,11.92
2023-02-19T16:33:39.292Z,12.20
2023-02-19T16:36:21.923Z,12.32
2023-02-19T16:39:14.303Z,12.30
2023-02-19T16:42:14.790Z,12.11
2023-02-19T16:44:45.475Z,12.04
2023-02-19T16:47:50.227Z,11.97
2023-02-19T16:50:30.275Z,11.99
2023-02-19T16:53:05.732Z,11.98
2023-02-19T16:55:35.608Z,12.10
2023-02-19T16:58:04.829Z,12.30
2023-02-19T17:00:34.148Z,12.07
2023-02-19T17:03:11.188Z,11.78
2023-02-19T17:05:43.965Z,11.85
2023-02-19T17:08:31.214Z,12.01
2023-02-19T17:11:00.933Z,12.03
2023-02-19T17:13:30.509Z,11.79
2023-02-19T17:16:00.191Z,11.59
2023-02-19T17:18:29.772Z,11.04
2023-02-19T17:21:08.312Z,11.45
2023-02-19T17:23:37.954Z,11.84
2023-02-19T17:26:08.387Z,11.44
2023-02-19T17:28:41.572Z,11.28
2023-02-19T17:31:16.563Z,11.19
2023-02-19T17:33:57.827Z,10.95
2023-02-19T17:36:43.442Z,10.72
2023-02-19T17:39:22.481Z,10.76
2023-02-19T17:41:58.180Z,10.80
2023-02-19T17:44:33.467Z,10.69
2023-02-19T17:47:12.277Z,10.39
2023-02-19T17:49:45.207Z,10.13
2023-02-19T17:52:23.115Z,9.85
2023-02-19T17:54:53.024Z,9.72
2023-02-19T17:57:26.359Z,9.51
2023-02-19T18:00:05.675Z,9.45
2023-02-19T18:02:48.113Z,9.45
2023-02-19T18:05:30.824Z,9.31
2023-02-19T18:08:20.721Z,9.21
2023-02-19T18:10:53.913Z,9.04
2023-02-19T18:13:23.752Z,8.81
2023-02-19T18:15:59.761Z,8.74
2023-02-19T18:18:37.081Z,8.60
2023-02-19T18:21:17.510Z,8.61
2023-02-19T18:23:59.004Z,8.49
2023-02-19T18:26:41.391Z,8.48
2023-02-19T18:29:27.441Z,8.69
2023-02-19T18:32:01.953Z,8.57
2023-02-19T18:34:40.330Z,8.44
2023-02-19T18:37:16.849Z,8.43
2023-02-19T18:39:57.894Z,8.39
2023-02-19T18:42:37.052Z,8.33
2023-02-19T18:45:17.107Z,8.28
2023-02-19T18:47:53.005Z,8.14
2023-02-19T18:50:26.544Z,8.12
2023-02-19T18:52:57.176Z,7.99
2023-02-19T18:55:37.200Z,7.94
2023-02-19T18:58:13.397Z,7.79
2023-02-19T19:00:56.466Z,7.96
2023-02-19T19:03:27.723Z,8.27
2023-02-19T19:06:06.424Z,8.33
2023-02-19T19:08:44.719Z,8.14
2023-02-19T19:11:23.873Z,8.04
2023-02-19T19:13:59.878Z,7.91
2023-02-19T19:16:38.323Z,7.75
2023-02-19T19:19:15.682Z,7.67
2023-02-19T19:21:55.072Z,7.56
2023-02-19T19:24:34.823Z,7.43
2023-02-19T19:27:14.365Z,7.42
2023-02-19T19:29:53.558Z,7.41
2023-02-19T19:32:26.961Z,7.39
2023-02-19T19:35:01.732Z,7.39
2023-02-19T19:37:40.062Z,7.33
2023-02-19T19:40:15.711Z,7.16
2023-02-19T19:42:54.736Z,7.04
2023-02-19T19:45:38.172Z,7.02
2023-02-19T19:48:15.894Z,6.90
2023-02-19T19:50:53.964Z,6.77
2023-02-19T19:53:28.887Z,6.76
2023-02-19T19:56:08.823Z,6.78
2023-02-19T19:58:52.088Z,6.76
2023-02-19T20:01:30.753Z,6.67
2023-02-19T20:04:09.689Z,6.48
2023-02-19T20:06:45.874Z,6.39
2023-02-19T20:09:28.681Z,6.26
2023-02-19T20:12:06.786Z,6.19
2023-02-19T20:15:00.550Z,6.15
2023-02-19T20:17:44.343Z,6.09
2023-02-19T20:20:23.030Z,6.05
2023-02-19T20:23:03.440Z,6.01
2023-02-19T20:25:47.069Z,6.05
2023-02-19T20:28:19.216Z,6.39
2023-02-19T20:30:59.272Z,6.09
2023-02-19T20:33:35.769Z,5.93
2023-02-19T20:36:13.275Z,5.82
2023-02-19T20:38:46.463Z,5.76
2023-02-19T20:41:27.694Z,5.76
2023-02-19T20:44:00.925Z,5.67
2023-02-19T20:46:46.403Z,5.59
2023-02-19T20:49:36.717Z,5.47
2023-02-19T20:52:20.394Z,5.37
2023-02-19T20:55:01.786Z,5.22
2023-02-19T20:57:37.800Z,5.56
2023-02-19T21:00:17.674Z,5.43
2023-02-19T21:03:04.175Z,5.39
2023-02-19T21:05:40.801Z,5.54
2023-02-19T21:08:15.178Z,5.47
2023-02-19T21:10:46.037Z,5.30
2023-02-19T21:13:15.668Z,4.77
2023-02-19T21:15:45.247Z,4.75
2023-02-19T21:18:17.476Z,4.64
2023-02-19T21:20:51.057Z,4.63
2023-02-19T21:23:21.733Z,4.79
2023-02-19T21:25:53.015Z,4.51
2023-02-19T21:28:23.794Z,4.31
2023-02-19T21:30:53.060Z,4.24
2023-02-19T21:33:23.803Z,4.17
2023-02-19T21:35:53.364Z,4.05
2023-02-19T21:38:23.230Z,4.01
2023-02-19T21:40:52.862Z,3.85
2023-02-19T21:43:22.534Z,3.92
2023-02-19T21:45:51.715Z,3.80
2023-02-19T21:48:20.959Z,3.82
2023-02-19T21:50:51.873Z,4.07
2023-02-19T21:53:23.518Z,4.23
2023-02-19T21:55:58.412Z,4.33
2023-02-19T21:58:28.090Z,4.43
2023-02-19T22:00:58.384Z,4.49
2023-02-19T22:03:27.762Z,4.38
2023-02-19T22:05:58.223Z,4.13
2023-02-19T22:08:27.724Z,4.08
2023-02-19T22:10:57.193Z,3.88
2023-02-19T22:13:26.296Z,3.92
2023-02-19T22:15:55.394Z,4.00
2023-02-19T22:18:24.649Z,3.84
2023-02-19T22:20:53.853Z,3.92
2023-02-19T22:23:24.388Z,3.94
2023-02-19T22:25:53.585Z,4.10
2023-02-19T22:28:22.784Z,3.91
2023-02-19T22:30:51.961Z,3.76
2023-02-19T22:33:21.055Z,3.72
2023-02-19T22:35:50.119Z,3.58
2023-02-19T22:38:19.470Z,3.54
2023-02-19T22:40:50.354Z,3.62
2023-02-19T22:43:19.720Z,3.87
2023-02-19T22:45:49.282Z,3.97
2023-02-19T22:48:29.432Z,3.97
2023-02-19T22:50:59.596Z,3.98
2023-02-19T22:53:28.663Z,3.86
2023-02-19T22:55:59.223Z,3.85
2023-02-19T22:58:28.297Z,3.73
2023-02-19T23:00:57.657Z,3.71
2023-02-19T23:03:26.799Z,3.59
2023-02-19T23:05:55.944Z,3.59
2023-02-19T23:08:25.122Z,3.64
2023-02-19T23:10:54.117Z,3.58
2023-02-19T23:13:24.690Z,3.59
2023-02-19T23:15:53.752Z,3.52
2023-02-19T23:18:22.959Z,3.52
2023-02-19T23:20:52.063Z,3.43
2023-02-19T23:23:21.220Z,3.37
2023-02-19T23:25:50.374Z,3.35
2023-02-19T23:28:19.639Z,3.33
2023-02-19T23:30:50.296Z,3.31
2023-02-19T23:33:19.560Z,3.28
2023-02-19T23:35:48.743Z,3.32
2023-02-19T23:38:17.979Z,3.19
2023-02-19T23:40:46.969Z,3.19
2023-02-19T23:43:16.123Z,3.11
2023-02-19T23:45:45.393Z,3.05
2023-02-19T23:48:16.112Z,3.01
2023-02-19T23:50:45.179Z,2.92
2023-02-19T23:53:14.417Z,2.85
2023-02-19T23:55:43.708Z,2.80
2023-02-19T23:58:12.788Z,2.75
